sensor_id;sensor_type;location;lat;lon;timestamp;pressure;altitude;pressure_sealevel;temperature;humidity
78444;BME280;67739;52.986;8.894;2023-04-06T00:00:45;102079.03;;;-0.43;74.14
78444;BME280;67739;52.986;8.894;2023-04-06T00:03:10;102079.84;;;-0.49;74.18
78444;BME280;67739;52.986;8.894;2023-04-06T00:05:35;102080.69;;;-0.50;74.08
78444;BME280;67739;52.986;8.894;2023-04-06T00:08:01;102074.44;;;-0.55;74.20
78444;BME280;67739;52.986;8.894;2023-04-06T00:10:26;102078.81;;;-0.58;74.36
78444;BME280;67739;52.986;8.894;2023-04-06T00:12:52;102074.31;;;-0.64;74.80
78444;BME280;67739;52.986;8.894;2023-04-06T00:15:19;102078.63;;;-0.67;74.59
78444;BME280;67739;52.986;8.894;2023-04-06T00:17:44;102079.44;;;-0.70;75.45
78444;BME280;67739;52.986;8.894;2023-04-06T00:20:10;102072.38;;;-0.74;75.59
78444;BME280;67739;52.986;8.894;2023-04-06T00:22:35;102069.66;;;-0.77;75.54
78444;BME280;67739;52.986;8.894;2023-04-06T00:25:01;102074.03;;;-0.79;76.16
78444;BME280;67739;52.986;8.894;2023-04-06T00:27:26;102065.19;;;-0.81;76.04
78444;BME280;67739;52.986;8.894;2023-04-06T00:29:52;102061.63;;;-0.83;75.85
78444;BME280;67739;52.986;8.894;2023-04-06T00:32:17;102061.56;;;-0.86;75.82
78444;BME280;67739;52.986;8.894;2023-04-06T00:34:43;102054.50;;;-0.90;76.11
78444;BME280;67739;52.986;8.894;2023-04-06T00:37:08;102053.53;;;-0.94;75.98
78444;BME280;67739;52.986;8.894;2023-04-06T00:39:33;102051.75;;;-0.96;76.05
78444;BME280;67739;52.986;8.894;2023-04-06T00:41:59;102055.19;;;-0.99;76.24
78444;BME280;67739;52.986;8.894;2023-04-06T00:44:25;102049.00;;;-1.02;76.53
78444;BME280;67739;52.986;8.894;2023-04-06T00:46:51;102044.56;;;-1.05;76.55
78444;BME280;67739;52.986;8.894;2023-04-06T00:49:17;102046.31;;;-1.05;76.67
78444;BME280;67739;52.986;8.894;2023-04-06T00:51:43;102047.16;;;-1.07;77.50
78444;BME280;67739;52.986;8.894;2023-04-06T00:54:08;102046.34;;;-1.04;77.76
78444;BME280;67739;52.986;8.894;2023-04-06T00:56:35;102051.59;;;-1.04;78.03
78444;BME280;67739;52.986;8.894;2023-04-06T00:59:00;102036.63;;;-1.07;78.51
78444;BME280;67739;52.986;8.894;2023-04-06T01:01:26;102040.06;;;-1.11;78.17
78444;BME280;67739;52.986;8.894;2023-04-06T01:03:51;102032.13;;;-1.12;78.34
78444;BME280;67739;52.986;8.894;2023-04-06T01:06:17;102037.31;;;-1.17;78.47
78444;BME280;67739;52.986;8.894;2023-04-06T01:08:42;102032.84;;;-1.21;78.26
78444;BME280;67739;52.986;8.894;2023-04-06T01:11:07;102035.44;;;-1.22;78.53
78444;BME280;67739;52.986;8.894;2023-04-06T01:13:33;102032.75;;;-1.25;78.19
78444;BME280;67739;52.986;8.894;2023-04-06T01:15:58;102030.03;;;-1.28;78.33
78444;BME280;67739;52.986;8.894;2023-04-06T01:18:27;102028.25;;;-1.31;79.21
78444;BME280;67739;52.986;8.894;2023-04-06T01:20:53;102028.25;;;-1.31;78.66
78444;BME280;67739;52.986;8.894;2023-04-06T01:23:19;102027.34;;;-1.33;79.36
78444;BME280;67739;52.986;8.894;2023-04-06T01:25:44;102031.69;;;-1.35;79.03
78444;BME280;67739;52.986;8.894;2023-04-06T01:28:10;102022.00;;;-1.36;79.70
78444;BME280;67739;52.986;8.894;2023-04-06T01:30:35;102017.56;;;-1.38;79.68
78444;BME280;67739;52.986;8.894;2023-04-06T01:33:01;102013.19;;;-1.38;79.80
78444;BME280;67739;52.986;8.894;2023-04-06T01:35:27;102017.56;;;-1.38;79.75
78444;BME280;67739;52.986;8.894;2023-04-06T01:37:53;102010.53;;;-1.39;79.83
78444;BME280;67739;52.986;8.894;2023-04-06T01:40:18;102018.41;;;-1.39;79.82
78444;BME280;67739;52.986;8.894;2023-04-06T01:42:44;102007.81;;;-1.43;79.73
78444;BME280;67739;52.986;8.894;2023-04-06T01:45:09;102014.78;;;-1.46;79.56
78444;BME280;67739;52.986;8.894;2023-04-06T01:47:35;102018.19;;;-1.52;79.32
78444;BME280;67739;52.986;8.894;2023-04-06T01:50:01;102002.34;;;-1.53;79.44
78444;BME280;67739;52.986;8.894;2023-04-06T01:52:28;102006.69;;;-1.55;79.49
78444;BME280;67739;52.986;8.894;2023-04-06T01:54:54;102004.06;;;-1.55;79.49
78444;BME280;67739;52.986;8.894;2023-04-06T01:57:19;102005.75;;;-1.57;79.76
78444;BME280;67739;52.986;8.894;2023-04-06T01:59:45;102001.34;;;-1.60;79.66
78444;BME280;67739;52.986;8.894;2023-04-06T02:02:10;101993.41;;;-1.63;79.52
78444;BME280;67739;52.986;8.894;2023-04-06T02:04:37;101996.78;;;-1.68;79.14
78444;BME280;67739;52.986;8.894;2023-04-06T02:07:03;101994.97;;;-1.71;78.95
78444;BME280;67739;52.986;8.894;2023-04-06T02:09:28;101997.56;;;-1.74;79.57
78444;BME280;67739;52.986;8.894;2023-04-06T02:11:54;101995.63;;;-1.81;79.20
78444;BME280;67739;52.986;8.894;2023-04-06T02:14:21;101992.94;;;-1.84;79.34
78444;BME280;67739;52.986;8.894;2023-04-06T02:16:46;101990.22;;;-1.87;79.09
78444;BME280;67739;52.986;8.894;2023-04-06T02:19:11;101981.41;;;-1.91;79.32
78444;BME280;67739;52.986;8.894;2023-04-06T02:21:37;101983.09;;;-1.93;79.47
78444;BME280;67739;52.986;8.894;2023-04-06T02:24:02;101976.03;;;-1.95;79.53
78444;BME280;67739;52.986;8.894;2023-04-06T02:26:28;101981.25;;;-1.97;79.40
78444;BME280;67739;52.986;8.894;2023-04-06T02:28:53;101980.38;;;-1.97;79.74
78444;BME280;67739;52.986;8.894;2023-04-06T02:31:18;101977.63;;;-2.02;79.40
78444;BME280;67739;52.986;8.894;2023-04-06T02:33:44;101984.63;;;-2.04;79.58
78444;BME280;67739;52.986;8.894;2023-04-06T02:36:09;101978.41;;;-2.07;79.57
78444;BME280;67739;52.986;8.894;2023-04-06T02:38:35;101975.69;;;-2.10;79.34
78444;BME280;67739;52.986;8.894;2023-04-06T02:41:00;101977.38;;;-2.14;79.50
78444;BME280;67739;52.986;8.894;2023-04-06T02:43:26;101980.00;;;-2.14;79.77
78444;BME280;67739;52.986;8.894;2023-04-06T02:45:51;101981.69;;;-2.16;80.18
78444;BME280;67739;52.986;8.894;2023-04-06T02:48:16;101976.44;;;-2.18;79.90
78444;BME280;67739;52.986;8.894;2023-04-06T02:50:42;101974.66;;;-2.19;80.11
78444;BME280;67739;52.986;8.894;2023-04-06T02:53:07;101978.13;;;-2.20;80.06
78444;BME280;67739;52.986;8.894;2023-04-06T02:55:33;101977.22;;;-2.22;80.27
78444;BME280;67739;52.986;8.894;2023-04-06T02:57:58;101978.09;;;-2.21;80.28
78444;BME280;67739;52.986;8.894;2023-04-06T03:00:24;101977.16;;;-2.23;80.19
78444;BME280;67739;52.986;8.894;2023-04-06T03:02:49;101973.66;;;-2.24;80.10
78444;BME280;67739;52.986;8.894;2023-04-06T03:05:15;101964.81;;;-2.27;80.28
78444;BME280;67739;52.986;8.894;2023-04-06T03:07:40;101965.66;;;-2.28;80.05
78444;BME280;67739;52.986;8.894;2023-04-06T03:10:06;101968.28;;;-2.28;80.13
78444;BME280;67739;52.986;8.894;2023-04-06T03:12:31;101959.47;;;-2.32;80.00
78444;BME280;67739;52.986;8.894;2023-04-06T03:14:57;101962.09;;;-2.32;80.29
78444;BME280;67739;52.986;8.894;2023-04-06T03:17:22;101960.28;;;-2.34;80.23
78444;BME280;67739;52.986;8.894;2023-04-06T03:19:48;101954.09;;;-2.36;80.37
78444;BME280;67739;52.986;8.894;2023-04-06T03:22:13;101956.69;;;-2.38;80.29
78444;BME280;67739;52.986;8.894;2023-04-06T03:24:38;101966.31;;;-2.38;80.06
78444;BME280;67739;52.986;8.894;2023-04-06T03:27:04;101955.72;;;-2.41;80.35
78444;BME280;67739;52.986;8.894;2023-04-06T03:29:29;101963.59;;;-2.41;80.39
78444;BME280;67739;52.986;8.894;2023-04-06T03:31:55;101950.41;;;-2.43;80.41
78444;BME280;67739;52.986;8.894;2023-04-06T03:34:20;101955.63;;;-2.44;80.62
78444;BME280;67739;52.986;8.894;2023-04-06T03:36:46;101964.41;;;-2.44;80.65
78444;BME280;67739;52.986;8.894;2023-04-06T03:39:11;101959.09;;;-2.47;80.68
78444;BME280;67739;52.986;8.894;2023-04-06T03:41:37;101960.75;;;-2.51;80.61
78444;BME280;67739;52.986;8.894;2023-04-06T03:44:02;101955.50;;;-2.51;80.70
78444;BME280;67739;52.986;8.894;2023-04-06T03:46:28;101952.84;;;-2.52;80.84
78444;BME280;67739;52.986;8.894;2023-04-06T03:48:53;101956.41;;;-2.50;81.03
78444;BME280;67739;52.986;8.894;2023-04-06T03:51:18;101955.63;;;-2.46;81.22
78444;BME280;67739;52.986;8.894;2023-04-06T03:53:44;101953.00;;;-2.44;81.86
78444;BME280;67739;52.986;8.894;2023-04-06T03:56:09;101958.34;;;-2.41;81.85
78444;BME280;67739;52.986;8.894;2023-04-06T03:58:35;101955.78;;;-2.38;82.00
78444;BME280;67739;52.986;8.894;2023-04-06T04:01:00;101955.78;;;-2.38;81.76
78444;BME280;67739;52.986;8.894;2023-04-06T04:03:26;101955.75;;;-2.40;81.81
78444;BME280;67739;52.986;8.894;2023-04-06T04:05:53;101953.09;;;-2.41;81.64
78444;BME280;67739;52.986;8.894;2023-04-06T04:08:20;101950.38;;;-2.46;81.55
78444;BME280;67739;52.986;8.894;2023-04-06T04:10:45;101960.81;;;-2.49;81.23
78444;BME280;67739;52.986;8.894;2023-04-06T04:13:10;101957.16;;;-2.54;81.38
78444;BME280;67739;52.986;8.894;2023-04-06T04:15:36;101971.94;;;-2.59;81.29
78444;BME280;67739;52.986;8.894;2023-04-06T04:18:01;101965.72;;;-2.63;81.32
78444;BME280;67739;52.986;8.894;2023-04-06T04:20:27;101969.97;;;-2.68;81.10
78444;BME280;67739;52.986;8.894;2023-04-06T04:22:53;101971.66;;;-2.70;81.00
78444;BME280;67739;52.986;8.894;2023-04-06T04:25:19;101967.19;;;-2.75;80.83
78444;BME280;67739;52.986;8.894;2023-04-06T04:27:44;101971.50;;;-2.77;81.14
78444;BME280;67739;52.986;8.894;2023-04-06T04:30:10;101964.44;;;-2.80;81.09
78444;BME280;67739;52.986;8.894;2023-04-06T04:32:35;101971.38;;;-2.82;81.33
78444;BME280;67739;52.986;8.894;2023-04-06T04:35:01;101969.56;;;-2.85;81.37
78444;BME280;67739;52.986;8.894;2023-04-06T04:37:26;101973.91;;;-2.85;81.17
78444;BME280;67739;52.986;8.894;2023-04-06T04:39:52;101973.88;;;-2.87;81.51
78444;BME280;67739;52.986;8.894;2023-04-06T04:42:17;101974.84;;;-2.83;82.09
78444;BME280;67739;52.986;8.894;2023-04-06T04:44:42;101967.94;;;-2.79;82.64
78444;BME280;67739;52.986;8.894;2023-04-06T04:47:08;101961.06;;;-2.74;82.67
78444;BME280;67739;52.986;8.894;2023-04-06T04:49:33;101966.41;;;-2.70;82.86
78444;BME280;67739;52.986;8.894;2023-04-06T04:51:58;101970.94;;;-2.64;82.82
78444;BME280;67739;52.986;8.894;2023-04-06T04:54:24;101963.97;;;-2.64;83.05
78444;BME280;67739;52.986;8.894;2023-04-06T04:56:49;101965.78;;;-2.61;82.88
78444;BME280;67739;52.986;8.894;2023-04-06T04:59:15;101969.25;;;-2.62;82.64
78444;BME280;67739;52.986;8.894;2023-04-06T05:01:41;101964.88;;;-2.62;82.46
78444;BME280;67739;52.986;8.894;2023-04-06T05:04:06;101975.44;;;-2.60;82.60
78444;BME280;67739;52.986;8.894;2023-04-06T05:06:32;101970.13;;;-2.62;82.82
78444;BME280;67739;52.986;8.894;2023-04-06T05:08:57;101957.00;;;-2.62;82.53
78444;BME280;67739;52.986;8.894;2023-04-06T05:11:23;101956.13;;;-2.62;82.81
78444;BME280;67739;52.986;8.894;2023-04-06T05:13:48;101958.78;;;-2.59;83.04
78444;BME280;67739;52.986;8.894;2023-04-06T05:16:14;101958.88;;;-2.56;83.10
78444;BME280;67739;52.986;8.894;2023-04-06T05:18:39;101955.44;;;-2.54;83.37
78444;BME280;67739;52.986;8.894;2023-04-06T05:21:05;101957.28;;;-2.50;83.60
78444;BME280;67739;52.986;8.894;2023-04-06T05:23:30;101959.16;;;-2.45;83.30
78444;BME280;67739;52.986;8.894;2023-04-06T05:25:56;101964.50;;;-2.41;83.30
78444;BME280;67739;52.986;8.894;2023-04-06T05:28:21;101961.03;;;-2.38;83.19
78444;BME280;67739;52.986;8.894;2023-04-06T05:30:47;101962.06;;;-2.33;83.19
78444;BME280;67739;52.986;8.894;2023-04-06T05:33:12;101952.63;;;-2.24;84.02
78444;BME280;67739;52.986;8.894;2023-04-06T05:35:38;101962.56;;;-2.10;84.56
78444;BME280;67739;52.986;8.894;2023-04-06T05:38:07;101964.69;;;-1.93;85.43
78444;BME280;67739;52.986;8.894;2023-04-06T05:40:33;101953.63;;;-1.78;86.22
78444;BME280;67739;52.986;8.894;2023-04-06T05:42:58;101957.47;;;-1.61;86.25
78444;BME280;67739;52.986;8.894;2023-04-06T05:45:23;101959.56;;;-1.43;87.29
78444;BME280;67739;52.986;8.894;2023-04-06T05:47:49;101958.09;;;-1.27;86.97
78444;BME280;67739;52.986;8.894;2023-04-06T05:50:15;101961.84;;;-1.15;86.38
78444;BME280;67739;52.986;8.894;2023-04-06T05:52:40;101960.31;;;-1.03;85.28
78444;BME280;67739;52.986;8.894;2023-04-06T05:55:08;101961.41;;;-0.91;84.67
78444;BME280;67739;52.986;8.894;2023-04-06T05:57:34;101959.94;;;-0.75;84.86
78444;BME280;67739;52.986;8.894;2023-04-06T05:59:59;101955.81;;;-0.59;84.95
78444;BME280;67739;52.986;8.894;2023-04-06T06:02:25;101962.22;;;-0.41;84.98
78444;BME280;67739;52.986;8.894;2023-04-06T06:04:50;101962.50;;;-0.22;84.24
78444;BME280;67739;52.986;8.894;2023-04-06T06:07:16;101957.53;;;-0.03;83.72
78444;BME280;67739;52.986;8.894;2023-04-06T06:09:41;101955.97;;;0.15;82.72
78444;BME280;67739;52.986;8.894;2023-04-06T06:12:06;101954.38;;;0.29;81.40
78444;BME280;67739;52.986;8.894;2023-04-06T06:14:32;101958.03;;;0.39;79.42
78444;BME280;67739;52.986;8.894;2023-04-06T06:16:57;101953.69;;;0.44;78.10
78444;BME280;67739;52.986;8.894;2023-04-06T06:19:23;101955.50;;;0.48;77.40
78444;BME280;67739;52.986;8.894;2023-04-06T06:21:48;101953.78;;;0.51;76.71
78444;BME280;67739;52.986;8.894;2023-04-06T06:24:13;101955.59;;;0.54;76.56
78444;BME280;67739;52.986;8.894;2023-04-06T06:26:39;101960.03;;;0.56;76.55
78444;BME280;67739;52.986;8.894;2023-04-06T06:29:05;101952.97;;;0.58;76.29
78444;BME280;67739;52.986;8.894;2023-04-06T06:31:31;101954.75;;;0.61;76.38
78444;BME280;67739;52.986;8.894;2023-04-06T06:33:57;101960.06;;;0.62;76.40
78444;BME280;67739;52.986;8.894;2023-04-06T06:36:22;101959.22;;;0.65;76.02
78444;BME280;67739;52.986;8.894;2023-04-06T06:38:47;101950.44;;;0.67;76.13
78444;BME280;67739;52.986;8.894;2023-04-06T06:41:13;101950.50;;;0.72;76.22
78444;BME280;67739;52.986;8.894;2023-04-06T06:43:38;101950.53;;;0.77;76.14
78444;BME280;67739;52.986;8.894;2023-04-06T06:46:04;101949.72;;;0.82;76.12
78444;BME280;67739;52.986;8.894;2023-04-06T06:48:29;101944.47;;;0.85;76.20
78444;BME280;67739;52.986;8.894;2023-04-06T06:50:55;101944.53;;;0.91;76.37
78444;BME280;67739;52.986;8.894;2023-04-06T06:53:21;101944.56;;;0.94;76.21
78444;BME280;67739;52.986;8.894;2023-04-06T06:55:46;101945.50;;;0.99;75.86
78444;BME280;67739;52.986;8.894;2023-04-06T06:58:14;101947.28;;;1.05;76.14
78444;BME280;67739;52.986;8.894;2023-04-06T07:00:39;101945.63;;;1.15;76.66
78444;BME280;67739;52.986;8.894;2023-04-06T07:03:05;101937.81;;;1.31;77.24
78444;BME280;67739;52.986;8.894;2023-04-06T07:05:30;101938.84;;;1.49;77.62
78444;BME280;67739;52.986;8.894;2023-04-06T07:07:56;101949.56;;;1.68;77.15
78444;BME280;67739;52.986;8.894;2023-04-06T07:10:21;101936.44;;;1.88;76.59
78444;BME280;67739;52.986;8.894;2023-04-06T07:12:47;101942.75;;;2.10;76.57
78444;BME280;67739;52.986;8.894;2023-04-06T07:15:12;101941.09;;;2.35;75.72
78444;BME280;67739;52.986;8.894;2023-04-06T07:17:37;101943.81;;;2.58;74.45
78444;BME280;67739;52.986;8.894;2023-04-06T07:20:03;101943.88;;;2.79;73.37
78444;BME280;67739;52.986;8.894;2023-04-06T07:22:29;101942.16;;;3.02;73.50
78444;BME280;67739;52.986;8.894;2023-04-06T07:24:54;101940.41;;;3.29;72.45
78444;BME280;67739;52.986;8.894;2023-04-06T07:27:20;101931.53;;;3.54;71.69
78444;BME280;67739;52.986;8.894;2023-04-06T07:29:45;101918.22;;;3.80;70.45
78444;BME280;67739;52.986;8.894;2023-04-06T07:32:11;101917.28;;;4.02;69.47
78444;BME280;67739;52.986;8.894;2023-04-06T07:34:36;101925.16;;;4.20;67.63
78444;BME280;67739;52.986;8.894;2023-04-06T07:37:01;101919.78;;;4.36;67.07
78444;BME280;67739;52.986;8.894;2023-04-06T07:39:28;101920.63;;;4.47;65.78
78444;BME280;67739;52.986;8.894;2023-04-06T07:41:53;101924.09;;;4.58;65.86
78444;BME280;67739;52.986;8.894;2023-04-06T07:44:19;101921.38;;;4.67;65.69
78444;BME280;67739;52.986;8.894;2023-04-06T07:46:44;101927.50;;;4.77;65.11
78444;BME280;67739;52.986;8.894;2023-04-06T07:49:10;101921.28;;;4.84;64.55
78444;BME280;67739;52.986;8.894;2023-04-06T07:51:37;101923.03;;;4.89;64.09
78444;BME280;67739;52.986;8.894;2023-04-06T07:54:02;101913.22;;;4.94;63.53
78444;BME280;67739;52.986;8.894;2023-04-06T07:56:28;101918.50;;;5.01;63.73
78444;BME280;67739;52.986;8.894;2023-04-06T07:58:53;101914.03;;;5.06;63.62
78444;BME280;67739;52.986;8.894;2023-04-06T08:01:21;101911.31;;;5.12;63.20
78444;BME280;67739;52.986;8.894;2023-04-06T08:03:47;101908.63;;;5.19;63.42
78444;BME280;67739;52.986;8.894;2023-04-06T08:06:12;101911.19;;;5.27;63.86
78444;BME280;67739;52.986;8.894;2023-04-06T08:08:37;101906.66;;;5.38;63.76
78444;BME280;67739;52.986;8.894;2023-04-06T08:11:03;101906.56;;;5.49;63.11
78444;BME280;67739;52.986;8.894;2023-04-06T08:13:28;101902.06;;;5.57;62.80
78444;BME280;67739;52.986;8.894;2023-04-06T08:15:54;101899.25;;;5.69;62.74
78444;BME280;67739;52.986;8.894;2023-04-06T08:18:20;101907.09;;;5.84;62.22
78444;BME280;67739;52.986;8.894;2023-04-06T08:20:45;101905.16;;;6.03;62.50
78444;BME280;67739;52.986;8.894;2023-04-06T08:23:10;101904.84;;;6.26;62.06
78444;BME280;67739;52.986;8.894;2023-04-06T08:25:36;101904.47;;;6.55;61.42
78444;BME280;67739;52.986;8.894;2023-04-06T08:28:03;101890.72;;;6.84;60.24
78444;BME280;67739;52.986;8.894;2023-04-06T08:30:29;101891.13;;;7.13;59.79
78444;BME280;67739;52.986;8.894;2023-04-06T08:32:54;101887.06;;;7.43;59.48
78444;BME280;67739;52.986;8.894;2023-04-06T08:35:20;101887.34;;;7.75;58.52
78444;BME280;67739;52.986;8.894;2023-04-06T08:37:45;101880.41;;;8.10;56.97
78444;BME280;67739;52.986;8.894;2023-04-06T08:40:12;101885.09;;;8.43;55.45
78444;BME280;67739;52.986;8.894;2023-04-06T08:42:47;101879.94;;;8.74;54.34
78444;BME280;67739;52.986;8.894;2023-04-06T08:45:15;101882.78;;;9.04;53.54
78444;BME280;67739;52.986;8.894;2023-04-06T08:47:41;101872.31;;;9.30;53.53
78444;BME280;67739;52.986;8.894;2023-04-06T08:50:08;101872.50;;;9.56;52.86
78444;BME280;67739;52.986;8.894;2023-04-06T08:52:33;101875.38;;;9.81;52.02
78444;BME280;67739;52.986;8.894;2023-04-06T08:55:00;101872.94;;;10.05;51.19
78444;BME280;67739;52.986;8.894;2023-04-06T08:57:26;101861.75;;;10.21;49.44
78444;BME280;67739;52.986;8.894;2023-04-06T08:59:51;101864.16;;;10.31;48.66
78444;BME280;67739;52.986;8.894;2023-04-06T09:02:18;101864.81;;;10.39;49.26
78444;BME280;67739;52.986;8.894;2023-04-06T09:04:48;101871.56;;;10.52;48.82
78444;BME280;67739;52.986;8.894;2023-04-06T09:07:15;101862.31;;;10.62;48.48
78444;BME280;67739;52.986;8.894;2023-04-06T09:09:41;101868.19;;;10.73;47.32
78444;BME280;67739;52.986;8.894;2023-04-06T09:12:28;101871.63;;;10.78;46.96
78444;BME280;67739;52.986;8.894;2023-04-06T09:14:55;101864.41;;;10.80;47.02
78444;BME280;67739;52.986;8.894;2023-04-06T09:17:30;101858.03;;;10.83;46.85
78444;BME280;67739;52.986;8.894;2023-04-06T09:19:57;101872.22;;;10.88;45.97
78444;BME280;67739;52.986;8.894;2023-04-06T09:22:23;101863.09;;;10.93;46.77
78444;BME280;67739;52.986;8.894;2023-04-06T09:24:52;101868.16;;;11.03;46.22
78444;BME280;67739;52.986;8.894;2023-04-06T09:27:18;101855.47;;;11.08;45.99
78444;BME280;67739;52.986;8.894;2023-04-06T09:29:44;101855.28;;;11.12;46.03
78444;BME280;67739;52.986;8.894;2023-04-06T09:32:10;101849.72;;;11.18;45.43
78444;BME280;67739;52.986;8.894;2023-04-06T09:34:39;101841.47;;;11.24;45.30
78444;BME280;67739;52.986;8.894;2023-04-06T09:37:18;101845.88;;;11.25;44.98
78444;BME280;67739;52.986;8.894;2023-04-06T09:39:44;101834.28;;;11.25;44.67
78444;BME280;67739;52.986;8.894;2023-04-06T09:42:12;101838.59;;;11.29;44.90
78444;BME280;67739;52.986;8.894;2023-04-06T09:44:37;101834.06;;;11.31;44.49
78444;BME280;67739;52.986;8.894;2023-04-06T09:47:06;101845.72;;;11.30;43.19
78444;BME280;67739;52.986;8.894;2023-04-06T09:49:33;101835.91;;;11.29;44.03
78444;BME280;67739;52.986;8.894;2023-04-06T09:52:01;101839.31;;;11.34;44.35
78444;BME280;67739;52.986;8.894;2023-04-06T09:54:29;101835.56;;;11.40;44.68
78444;BME280;67739;52.986;8.894;2023-04-06T09:57:07;101846.13;;;11.44;44.80
78444;BME280;67739;52.986;8.894;2023-04-06T09:59:48;101839.78;;;11.47;44.90
78444;BME280;67739;52.986;8.894;2023-04-06T10:02:24;101846.63;;;11.55;44.96
78444;BME280;67739;52.986;8.894;2023-04-06T10:05:05;101843.56;;;11.66;45.25
78444;BME280;67739;52.986;8.894;2023-04-06T10:07:33;101835.16;;;11.75;44.00
78444;BME280;67739;52.986;8.894;2023-04-06T10:10:00;101833.09;;;11.83;44.27
78444;BME280;67739;52.986;8.894;2023-04-06T10:12:27;101829.09;;;11.95;45.16
78444;BME280;67739;52.986;8.894;2023-04-06T10:14:53;101828.56;;;12.09;44.13
78444;BME280;67739;52.986;8.894;2023-04-06T10:17:18;101832.59;;;12.20;43.95
78444;BME280;67739;52.986;8.894;2023-04-06T10:19:53;101821.41;;;12.31;42.99
78444;BME280;67739;52.986;8.894;2023-04-06T10:22:45;101823.63;;;12.43;43.46
78444;BME280;67739;52.986;8.894;2023-04-06T10:25:26;101832.72;;;12.62;42.67
78444;BME280;67739;52.986;8.894;2023-04-06T10:28:05;101834.00;;;12.75;42.79
78444;BME280;67739;52.986;8.894;2023-04-06T10:30:30;101825.22;;;12.92;43.34
78444;BME280;67739;52.986;8.894;2023-04-06T10:32:56;101828.22;;;13.06;42.08
78444;BME280;67739;52.986;8.894;2023-04-06T10:35:21;101823.44;;;13.13;40.73
78444;BME280;67739;52.986;8.894;2023-04-06T10:37:52;101819.34;;;13.26;41.31
78444;BME280;67739;52.986;8.894;2023-04-06T10:40:25;101815.69;;;13.48;42.03
78444;BME280;67739;52.986;8.894;2023-04-06T10:42:52;101816.34;;;13.73;40.53
78444;BME280;67739;52.986;8.894;2023-04-06T10:45:25;101815.59;;;13.90;39.74
78444;BME280;67739;52.986;8.894;2023-04-06T10:47:54;101809.28;;;14.09;40.48
78444;BME280;67739;52.986;8.894;2023-04-06T10:50:21;101811.84;;;14.31;39.91
78444;BME280;67739;52.986;8.894;2023-04-06T10:52:58;101808.97;;;14.55;39.25
78444;BME280;67739;52.986;8.894;2023-04-06T10:55:25;101798.03;;;14.75;39.27
78444;BME280;67739;52.986;8.894;2023-04-06T10:57:51;101801.56;;;14.94;39.12
78444;BME280;67739;52.986;8.894;2023-04-06T11:00:17;101793.56;;;15.10;37.50
78444;BME280;67739;52.986;8.894;2023-04-06T11:02:44;101791.91;;;15.25;36.27
78444;BME280;67739;52.986;8.894;2023-04-06T11:05:11;101803.09;;;15.34;36.07
78444;BME280;67739;52.986;8.894;2023-04-06T11:07:39;101793.66;;;15.43;35.50
78444;BME280;67739;52.986;8.894;2023-04-06T11:10:06;101798.19;;;15.60;36.05
78444;BME280;67739;52.986;8.894;2023-04-06T11:12:31;101782.03;;;15.75;34.17
78444;BME280;67739;52.986;8.894;2023-04-06T11:14:57;101776.22;;;15.83;34.16
78444;BME280;67739;52.986;8.894;2023-04-06T11:17:32;101779.13;;;15.96;35.11
78444;BME280;67739;52.986;8.894;2023-04-06T11:20:03;101772.94;;;16.09;33.82
78444;BME280;67739;52.986;8.894;2023-04-06T11:22:30;101776.69;;;16.22;34.00
78444;BME280;67739;52.986;8.894;2023-04-06T11:25:05;101774.19;;;16.35;31.85
78444;BME280;67739;52.986;8.894;2023-04-06T11:27:32;101774.78;;;16.40;31.76
78444;BME280;67739;52.986;8.894;2023-04-06T11:30:01;101768.13;;;16.46;32.01
78444;BME280;67739;52.986;8.894;2023-04-06T11:32:27;101760.97;;;16.45;30.51
78444;BME280;67739;52.986;8.894;2023-04-06T11:34:53;101771.81;;;16.45;31.22
78444;BME280;67739;52.986;8.894;2023-04-06T11:37:19;101756.88;;;16.38;30.11
78444;BME280;67739;52.986;8.894;2023-04-06T11:39:49;101752.75;;;16.31;30.83
78444;BME280;67739;52.986;8.894;2023-04-06T11:42:29;101762.38;;;16.20;30.16
78444;BME280;67739;52.986;8.894;2023-04-06T11:44:55;101752.25;;;16.24;31.57
78444;BME280;67739;52.986;8.894;2023-04-06T11:47:57;101755.94;;;16.39;32.63
78444;BME280;67739;52.986;8.894;2023-04-06T11:50:24;101750.41;;;16.56;31.58
78444;BME280;67739;52.986;8.894;2023-04-06T11:52:59;101738.72;;;16.71;31.11
78444;BME280;67739;52.986;8.894;2023-04-06T11:55:26;101756.97;;;16.83;30.19
78444;BME280;67739;52.986;8.894;2023-04-06T11:57:51;101747.78;;;16.86;29.30
78444;BME280;67739;52.986;8.894;2023-04-06T12:00:17;101748.44;;;16.89;28.77
78444;BME280;67739;52.986;8.894;2023-04-06T12:02:47;101742.06;;;16.90;29.25
78444;BME280;67739;52.986;8.894;2023-04-06T12:05:12;101734.63;;;16.94;29.47
78444;BME280;67739;52.986;8.894;2023-04-06T12:07:38;101734.84;;;17.05;29.93
78444;BME280;67739;52.986;8.894;2023-04-06T12:10:04;101737.91;;;17.15;28.98
78444;BME280;67739;52.986;8.894;2023-04-06T12:12:30;101741.09;;;17.21;30.08
78444;BME280;67739;52.986;8.894;2023-04-06T12:14:56;101740.06;;;17.24;29.56
78444;BME280;67739;52.986;8.894;2023-04-06T12:17:21;101735.50;;;17.24;29.22
78444;BME280;67739;52.986;8.894;2023-04-06T12:19:47;101725.34;;;17.28;28.50
78444;BME280;67739;52.986;8.894;2023-04-06T12:22:12;101727.56;;;17.36;28.04
78444;BME280;67739;52.986;8.894;2023-04-06T12:24:38;101731.66;;;17.28;27.76
78444;BME280;67739;52.986;8.894;2023-04-06T12:27:03;101721.84;;;17.26;28.49
78444;BME280;67739;52.986;8.894;2023-04-06T12:29:29;101722.81;;;17.25;28.29
78444;BME280;67739;52.986;8.894;2023-04-06T12:31:54;101721.16;;;17.22;28.39
78444;BME280;67739;52.986;8.894;2023-04-06T12:34:20;101715.13;;;17.17;28.18
78444;BME280;67739;52.986;8.894;2023-04-06T12:36:45;101713.13;;;17.21;28.81
78444;BME280;67739;52.986;8.894;2023-04-06T12:39:11;101709.16;;;17.26;28.35
78444;BME280;67739;52.986;8.894;2023-04-06T12:41:36;101707.63;;;17.37;28.39
78444;BME280;67739;52.986;8.894;2023-04-06T12:44:02;101710.34;;;17.51;27.81
78444;BME280;67739;52.986;8.894;2023-04-06T12:46:29;101706.56;;;17.53;28.27
78444;BME280;67739;52.986;8.894;2023-04-06T12:48:57;101716.94;;;17.61;27.67